createdAt,value
2018-11-28T00:01:02.801Z,99711.50
2018-11-28T00:03:31.927Z,99715.30
2018-11-28T00:06:01.064Z,99713.44
2018-11-28T00:08:29.644Z,99710.28
2018-11-28T00:10:58.312Z,99713.80
2018-11-28T00:13:27.206Z,99706.41
2018-11-28T00:15:56.071Z,99709.25
2018-11-28T00:18:25.619Z,99703.24
2018-11-28T00:20:54.643Z,99702.89
2018-11-28T00:23:23.462Z,99703.23
2018-11-28T00:25:58.701Z,99702.89
2018-11-28T00:28:22.619Z,99701.17
2018-11-28T00:30:51.911Z,99707.02
2018-11-28T00:33:20.989Z,99701.44
2018-11-28T00:35:49.843Z,99699.85
2018-11-28T00:38:18.847Z,99697.51
2018-11-28T00:40:47.983Z,99701.16
2018-11-28T00:43:16.630Z,99715.09
2018-11-28T00:45:45.439Z,99716.31
2018-11-28T00:48:14.438Z,99718.52
2018-11-28T00:50:43.921Z,99710.22
2018-11-28T00:53:12.828Z,99713.56
2018-11-28T00:55:42.099Z,99704.55
2018-11-28T00:58:11.117Z,99710.80
2018-11-28T01:00:41.663Z,99712.39
2018-11-28T01:03:10.423Z,99707.91
2018-11-28T01:05:39.570Z,99705.31
2018-11-28T01:08:08.142Z,99701.88
2018-11-28T01:10:38.048Z,99705.36
2018-11-28T01:13:08.217Z,99708.34
2018-11-28T01:15:37.102Z,99706.94
2018-11-28T01:18:06.962Z,99713.13
2018-11-28T01:20:35.515Z,99708.06
2018-11-28T01:23:05.782Z,99708.59
2018-11-28T01:25:34.971Z,99706.97
2018-11-28T01:28:04.320Z,99711.70
2018-11-28T01:30:33.784Z,99714.02
2018-11-28T01:33:02.582Z,99709.81
2018-11-28T01:35:31.555Z,99709.17
2018-11-28T01:38:00.151Z,99713.05
2018-11-28T01:40:28.971Z,99704.43
2018-11-28T01:42:57.931Z,99704.63
2018-11-28T01:45:26.524Z,99710.56
2018-11-28T01:47:55.657Z,99707.78
2018-11-28T01:50:25.015Z,99713.55
2018-11-28T01:52:53.594Z,99709.01
2018-11-28T01:55:23.300Z,99707.22
2018-11-28T01:57:52.223Z,99704.72
2018-11-28T02:00:23.630Z,99704.35
2018-11-28T02:03:07.194Z,99698.55
2018-11-28T02:05:37.035Z,99694.55
2018-11-28T02:08:05.894Z,99685.67
2018-11-28T02:10:34.796Z,99693.77
2018-11-28T02:13:03.822Z,99688.08
2018-11-28T02:15:32.577Z,99688.96
2018-11-28T02:18:01.719Z,99684.71
2018-11-28T02:20:31.057Z,99691.53
2018-11-28T02:23:00.483Z,99688.14
2018-11-28T02:25:29.410Z,99688.87
2018-11-28T02:27:57.993Z,99695.50
2018-11-28T02:30:26.793Z,99689.85
2018-11-28T02:32:56.113Z,99684.62
2018-11-28T02:35:25.219Z,99678.54
2018-11-28T02:37:53.798Z,99677.69
2018-11-28T02:40:22.781Z,99693.09
2018-11-28T02:42:52.257Z,99698.44
2018-11-28T02:45:21.867Z,99694.52
2018-11-28T02:47:51.426Z,99691.58
2018-11-28T02:50:20.744Z,99698.11
2018-11-28T02:52:49.561Z,99689.01
2018-11-28T02:55:19.662Z,99692.27
2018-11-28T02:57:49.086Z,99694.64
2018-11-28T03:00:23.087Z,99699.34
2018-11-28T03:02:52.183Z,99701.09
2018-11-28T03:05:21.302Z,99707.30
2018-11-28T03:07:50.324Z,99709.67
2018-11-28T03:10:20.964Z,99704.84
2018-11-28T03:12:49.940Z,99710.37
2018-11-28T03:15:26.610Z,99708.97
2018-11-28T03:17:55.445Z,99704.39
2018-11-28T03:20:24.523Z,99710.30
2018-11-28T03:22:53.584Z,99712.03
2018-11-28T03:25:23.103Z,99710.72
2018-11-28T03:27:52.270Z,99711.09
2018-11-28T03:30:21.153Z,99711.98
2018-11-28T03:32:50.049Z,99704.34
2018-11-28T03:35:18.586Z,99705.72
2018-11-28T03:37:47.135Z,99708.67
2018-11-28T03:40:16.093Z,99705.28
2018-11-28T03:42:45.098Z,99706.17
2018-11-28T03:45:17.180Z,99704.41
2018-11-28T03:47:46.542Z,99706.39
2018-11-28T03:50:16.606Z,99709.00
2018-11-28T03:52:46.001Z,99713.34
2018-11-28T03:55:15.885Z,99717.03
2018-11-28T03:57:46.125Z,99716.66
2018-11-28T04:00:15.980Z,99710.58
2018-11-28T04:02:44.602Z,99710.28
2018-11-28T04:05:13.437Z,99717.67
2018-11-28T04:07:42.719Z,99714.72
2018-11-28T04:10:12.399Z,99713.30
2018-11-28T04:12:41.417Z,99722.86
2018-11-28T04:15:13.013Z,99718.37
2018-11-28T04:17:42.352Z,99714.20
2018-11-28T04:20:12.495Z,99709.72
2018-11-28T04:22:41.423Z,99718.97
2018-11-28T04:25:10.801Z,99719.50
2018-11-28T04:27:39.811Z,99719.91
2018-11-28T04:30:15.822Z,99723.45
2018-11-28T04:32:45.174Z,99722.48
2018-11-28T04:35:14.713Z,99726.18
2018-11-28T04:37:44.661Z,99717.19
2018-11-28T04:40:14.168Z,99714.42
2018-11-28T04:42:43.061Z,99717.78
2018-11-28T04:45:16.637Z,99717.26
2018-11-28T04:47:46.057Z,99716.81
2018-11-28T04:50:14.950Z,99722.86
2018-11-28T04:52:43.547Z,99726.66
2018-11-28T04:55:13.241Z,99720.28
2018-11-28T04:57:42.380Z,99721.52
2018-11-28T05:00:14.418Z,99722.75
2018-11-28T05:02:43.051Z,99719.42
2018-11-28T05:05:12.625Z,99723.38
2018-11-28T05:07:41.972Z,99714.34
2018-11-28T05:10:12.528Z,99711.58
2018-11-28T05:12:42.067Z,99716.08
2018-11-28T05:15:12.519Z,99708.42
2018-11-28T05:17:41.344Z,99717.42
2018-11-28T05:20:14.112Z,99722.16
2018-11-28T05:22:42.937Z,99720.95
2018-11-28T05:25:30.638Z,99721.08
2018-11-28T05:27:59.622Z,99715.25
2018-11-28T05:30:30.711Z,99721.11
2018-11-28T05:32:59.419Z,99723.95
2018-11-28T05:35:31.483Z,99721.38
2018-11-28T05:38:00.432Z,99727.83
2018-11-28T05:40:29.504Z,99725.31
2018-11-28T05:42:58.265Z,99730.06
2018-11-28T05:45:27.177Z,99730.77
2018-11-28T05:47:56.658Z,99728.34
2018-11-28T05:50:25.827Z,99727.06
2018-11-28T05:52:55.082Z,99725.31
2018-11-28T05:55:24.160Z,99727.59
2018-11-28T05:57:53.334Z,99730.67
2018-11-28T06:00:28.022Z,99725.90
2018-11-28T06:02:56.627Z,99718.88
2018-11-28T06:05:25.208Z,99723.83
2018-11-28T06:07:54.277Z,99731.54
2018-11-28T06:10:23.218Z,99724.98
2018-11-28T06:12:58.469Z,99724.52
2018-11-28T06:15:29.712Z,99723.75
2018-11-28T06:18:03.450Z,99728.19
2018-11-28T06:20:42.676Z,99730.47
2018-11-28T06:23:15.322Z,99731.36
2018-11-28T06:25:46.896Z,99732.36
2018-11-28T06:28:16.137Z,99741.87
2018-11-28T06:30:51.543Z,99754.58
2018-11-28T06:33:26.014Z,99757.71
2018-11-28T06:35:55.713Z,99755.13
2018-11-28T06:38:24.632Z,99753.75
2018-11-28T06:41:00.140Z,99756.30
2018-11-28T06:43:38.137Z,99753.22
2018-11-28T06:46:09.196Z,99761.35
2018-11-28T06:48:38.079Z,99764.55
2018-11-28T06:51:09.642Z,99765.77
2018-11-28T06:53:40.294Z,99766.20
2018-11-28T06:56:10.463Z,99766.27
2018-11-28T06:58:41.726Z,99763.38
2018-11-28T07:01:12.554Z,99765.63
2018-11-28T07:03:41.563Z,99774.36
2018-11-28T07:06:10.135Z,99770.06
2018-11-28T07:08:39.287Z,99774.92
2018-11-28T07:11:08.182Z,99779.30
2018-11-28T07:13:37.062Z,99772.34
2018-11-28T07:16:13.090Z,99777.41
2018-11-28T07:19:17.692Z,99778.36
2018-11-28T07:21:48.178Z,99788.28
2018-11-28T07:24:21.600Z,99791.67
2018-11-28T07:26:54.802Z,99790.78
2018-11-28T07:29:28.220Z,99784.52
2018-11-28T07:32:02.121Z,99790.59
2018-11-28T07:34:36.490Z,99799.30
2018-11-28T07:37:05.968Z,99793.20
2018-11-28T07:39:42.926Z,99789.61
2018-11-28T07:42:23.911Z,99792.55
2018-11-28T07:44:58.181Z,99797.68
2018-11-28T07:47:29.687Z,99799.43
2018-11-28T07:50:01.768Z,99795.87
2018-11-28T07:52:32.343Z,99793.80
2018-11-28T07:55:01.590Z,99787.22
2018-11-28T07:57:34.215Z,99788.07
2018-11-28T08:00:04.287Z,99795.52
2018-11-28T08:02:36.389Z,99797.53
2018-11-28T08:05:08.152Z,99793.52
2018-11-28T08:07:37.392Z,99797.53
2018-11-28T08:10:10.759Z,99807.81
2018-11-28T08:12:41.264Z,99813.06
2018-11-28T08:15:15.652Z,99813.77
2018-11-28T08:17:45.492Z,99812.00
2018-11-28T08:20:35.407Z,99814.60
2018-11-28T08:23:34.363Z,99812.34
2018-11-28T08:26:04.628Z,99810.08
2018-11-28T08:28:36.928Z,99815.69
2018-11-28T08:31:12.230Z,99817.37
2018-11-28T08:33:45.266Z,99816.16
2018-11-28T08:36:15.264Z,99825.52
2018-11-28T08:38:44.231Z,99816.42
2018-11-28T08:41:14.597Z,99814.56
2018-11-28T08:43:44.957Z,99828.45
2018-11-28T08:46:15.634Z,99827.11
2018-11-28T08:48:45.560Z,99821.69
2018-11-28T08:51:14.430Z,99823.23
2018-11-28T08:53:43.014Z,99820.06
2018-11-28T08:56:14.693Z,99825.29
2018-11-28T08:58:48.429Z,99824.84
2018-11-28T09:01:19.862Z,99820.37
2018-11-28T09:03:50.102Z,99814.55
2018-11-28T09:06:19.659Z,99816.27
2018-11-28T09:08:48.872Z,99822.91
2018-11-28T09:11:17.819Z,99817.23
2018-11-28T09:13:47.013Z,99816.27
2018-11-28T09:16:15.585Z,99813.55
2018-11-28T09:18:44.874Z,99816.38
2018-11-28T09:21:15.533Z,99822.88
2018-11-28T09:23:46.095Z,99823.48
2018-11-28T09:26:19.586Z,99818.77
2018-11-28T09:28:48.616Z,99817.61
2018-11-28T09:31:17.950Z,99818.44
2018-11-28T09:33:47.403Z,99827.02
2018-11-28T09:36:16.321Z,99830.42
2018-11-28T09:38:45.400Z,99823.85
2018-11-28T09:41:14.971Z,99824.41
2018-11-28T09:43:45.197Z,99829.79
2018-11-28T09:46:23.474Z,99827.20
2018-11-28T09:49:20.617Z,99830.03
2018-11-28T09:51:56.169Z,99828.23
2018-11-28T09:54:30.649Z,99829.52
2018-11-28T09:57:04.065Z,99826.88
2018-11-28T09:59:36.713Z,99827.78
2018-11-28T10:02:33.865Z,99832.56
2018-11-28T10:05:09.997Z,99821.20
2018-11-28T10:07:39.559Z,99818.91
2018-11-28T10:10:14.021Z,99812.64
2018-11-28T10:12:43.845Z,99799.89
2018-11-28T10:15:24.471Z,99803.36
2018-11-28T10:17:55.678Z,99801.13
2018-11-28T10:20:24.458Z,99801.91
2018-11-28T10:22:58.369Z,99811.19
2018-11-28T10:28:08.261Z,99803.98
2018-11-28T10:30:39.694Z,99799.66
2018-11-28T10:33:13.332Z,99786.50
2018-11-28T10:35:43.700Z,99790.84
2018-11-28T10:38:13.640Z,99785.55
2018-11-28T10:40:46.015Z,99785.77
2018-11-28T10:43:20.514Z,99786.77
2018-11-28T10:45:52.309Z,99781.15
2018-11-28T10:48:25.171Z,99778.05
2018-11-28T10:51:01.719Z,99779.56
2018-11-28T10:53:30.517Z,99775.84
2018-11-28T10:55:59.462Z,99789.33
2018-11-28T10:58:28.076Z,99786.22
2018-11-28T11:01:02.334Z,99791.70
2018-11-28T11:03:35.958Z,99784.71
2018-11-28T11:06:09.114Z,99781.31
2018-11-28T11:08:43.416Z,99781.70
2018-11-28T11:11:17.608Z,99779.17
2018-11-28T11:13:52.799Z,99782.95
2018-11-28T11:16:31.998Z,99784.34
2018-11-28T11:19:06.153Z,99776.52
2018-11-28T11:21:38.893Z,99775.83
2018-11-28T11:24:08.743Z,99770.97
2018-11-28T11:26:38.071Z,99764.17
2018-11-28T11:29:06.883Z,99763.32
2018-11-28T11:31:37.052Z,99754.80
2018-11-28T11:34:06.863Z,99754.05
2018-11-28T11:36:35.439Z,99751.31
2018-11-28T11:39:04.633Z,99746.16
2018-11-28T11:41:33.827Z,99748.73
2018-11-28T11:44:03.506Z,99742.00
2018-11-28T11:46:32.650Z,99736.82
2018-11-28T11:49:01.765Z,99738.23
2018-11-28T11:51:30.587Z,99734.05
2018-11-28T11:54:00.051Z,99739.05
2018-11-28T11:56:31.469Z,99745.45
2018-11-28T11:59:37.078Z,99745.22
2018-11-28T12:02:26.726Z,99739.63
2018-11-28T12:05:16.662Z,99739.75
2018-11-28T12:07:46.720Z,99740.83
2018-11-28T12:10:15.951Z,99732.66
2018-11-28T12:19:25.523Z,99730.70
2018-11-28T12:25:21.714Z,99717.39
2018-11-28T12:28:25.061Z,99716.01
2018-11-28T12:30:54.148Z,99712.86
2018-11-28T12:33:23.843Z,99716.08
2018-11-28T12:35:52.362Z,99711.95
2018-11-28T12:38:22.027Z,99712.44
2018-11-28T12:40:50.928Z,99714.02
2018-11-28T12:43:19.827Z,99722.51
2018-11-28T12:45:49.714Z,99714.70
2018-11-28T12:48:20.066Z,99717.72
2018-11-28T12:50:49.364Z,99719.61
2018-11-28T12:53:18.907Z,99721.38
2018-11-28T12:55:47.747Z,99726.17
2018-11-28T12:58:18.084Z,99717.95
2018-11-28T13:00:47.213Z,99723.14
2018-11-28T13:03:17.063Z,99720.35
2018-11-28T13:05:46.100Z,99717.15
2018-11-28T13:08:15.401Z,99716.35
2018-11-28T13:10:44.236Z,99713.19
2018-11-28T13:13:14.591Z,99704.36
2018-11-28T13:15:44.074Z,99709.23
2018-11-28T13:18:13.142Z,99701.27
2018-11-28T13:20:43.052Z,99705.38
2018-11-28T13:23:13.142Z,99702.73
2018-11-28T13:25:42.092Z,99707.38
2018-11-28T13:28:11.089Z,99704.95
2018-11-28T13:30:40.078Z,99696.64
2018-11-28T13:33:09.202Z,99686.91
2018-11-28T13:35:38.214Z,99686.86
2018-11-28T13:38:09.986Z,99684.00
2018-11-28T13:40:38.851Z,99690.63
2018-11-28T13:43:08.453Z,99685.09
2018-11-28T13:45:39.511Z,99689.20
2018-11-28T13:48:08.330Z,99691.52
2018-11-28T13:50:38.307Z,99691.77
2018-11-28T13:53:09.417Z,99696.73
2018-11-28T13:55:41.981Z,99702.80
2018-11-28T13:58:09.810Z,99708.51
2018-11-28T14:00:39.062Z,99705.38
2018-11-28T14:03:08.203Z,99706.98
2018-11-28T14:05:37.050Z,99698.34
2018-11-28T14:08:06.584Z,99696.03
2018-11-28T14:10:35.770Z,99690.72
2018-11-28T14:13:05.769Z,99695.91
2018-11-28T14:15:34.344Z,99700.66
2018-11-28T14:18:05.126Z,99692.84
2018-11-28T14:20:33.903Z,99696.67
2018-11-28T14:23:02.811Z,99696.44
2018-11-28T14:25:31.386Z,99701.12
2018-11-28T14:28:00.258Z,99708.70
2018-11-28T14:30:29.465Z,99703.29
2018-11-28T14:32:58.057Z,99703.23
2018-11-28T14:35:26.940Z,99697.23
2018-11-28T14:37:56.285Z,99695.93
2018-11-28T14:40:25.545Z,99695.15
2018-11-28T14:42:57.281Z,99694.69
2018-11-28T14:45:26.994Z,99695.66
2018-11-28T14:47:56.199Z,99697.19
2018-11-28T14:50:26.628Z,99697.88
2018-11-28T14:52:57.171Z,99698.79
2018-11-28T14:55:32.696Z,99698.09
2018-11-28T14:58:02.624Z,99696.62
2018-11-28T15:00:31.917Z,99700.95
2018-11-28T15:03:07.010Z,99695.25
2018-11-28T15:06:44.681Z,99701.87
2018-11-28T15:09:18.417Z,99694.92
2018-11-28T15:11:47.795Z,99709.58
2018-11-28T15:14:16.718Z,99709.28
2018-11-28T15:16:46.206Z,99706.95
2018-11-28T15:19:15.563Z,99699.24
2018-11-28T15:21:44.454Z,99693.42
2018-11-28T15:24:13.309Z,99695.48
2018-11-28T15:26:43.076Z,99702.38
2018-11-28T15:29:12.356Z,99703.42
2018-11-28T15:31:41.448Z,99698.33
2018-11-28T15:34:10.777Z,99684.47
2018-11-28T15:36:40.001Z,99684.18
2018-11-28T15:39:09.748Z,99679.06
2018-11-28T15:41:39.708Z,99669.41
2018-11-28T15:44:09.269Z,99669.69
2018-11-28T15:46:38.563Z,99675.00
2018-11-28T15:49:07.774Z,99678.41
2018-11-28T15:51:36.904Z,99675.91
2018-11-28T15:54:06.336Z,99677.88
2018-11-28T15:56:36.079Z,99677.32
2018-11-28T15:59:05.480Z,99673.39
2018-11-28T16:01:34.468Z,99677.89
2018-11-28T16:04:03.559Z,99677.48
2018-11-28T16:06:33.153Z,99677.27
2018-11-28T16:09:02.016Z,99679.66
2018-11-28T16:11:31.270Z,99683.12
2018-11-28T16:13:59.831Z,99676.92
2018-11-28T16:16:28.747Z,99681.35
2018-11-28T16:18:57.952Z,99684.90
2018-11-28T16:21:26.498Z,99680.39
2018-11-28T16:23:55.880Z,99692.30
2018-11-28T16:26:28.605Z,99682.73
2018-11-28T16:28:57.550Z,99687.17
2018-11-28T16:31:26.576Z,99682.21
2018-11-28T16:33:56.095Z,99686.95
2018-11-28T16:36:25.401Z,99678.78
2018-11-28T16:38:56.928Z,99686.50
2018-11-28T16:41:26.130Z,99684.19
2018-11-28T16:43:55.511Z,99690.64
2018-11-28T16:46:24.857Z,99679.05
2018-11-28T16:48:54.033Z,99678.05
2018-11-28T16:51:23.312Z,99678.50
2018-11-28T16:53:53.083Z,99670.94
2018-11-28T16:56:22.299Z,99669.78
2018-11-28T16:58:51.645Z,99663.07
2018-11-28T17:01:25.241Z,99660.70
2018-11-28T17:03:55.577Z,99668.13
2018-11-28T17:06:40.609Z,99668.37
2018-11-28T17:09:12.050Z,99664.36
2018-11-28T17:11:51.154Z,99672.30
2018-11-28T17:14:20.358Z,99665.49
2018-11-28T17:16:53.236Z,99671.09
2018-11-28T17:19:26.482Z,99667.38
2018-11-28T17:22:14.168Z,99677.41
2018-11-28T17:24:52.682Z,99688.29
2018-11-28T17:27:41.625Z,99683.77
2018-11-28T17:30:18.861Z,99693.68
2018-11-28T17:32:53.666Z,99685.33
2018-11-28T17:35:34.798Z,99678.45
2018-11-28T17:38:11.548Z,99674.83
2018-11-28T17:40:43.824Z,99674.93
2018-11-28T17:43:24.218Z,99671.99
2018-11-28T17:45:58.605Z,99677.00
2018-11-28T17:48:37.963Z,99689.16
2018-11-28T17:51:10.639Z,99695.36
2018-11-28T17:53:44.207Z,99693.33
2018-11-28T17:56:18.265Z,99703.47
2018-11-28T17:58:54.111Z,99694.54
2018-11-28T18:01:51.755Z,99695.80
2018-11-28T18:04:56.914Z,99706.88
2018-11-28T18:07:36.405Z,99709.85
2018-11-28T18:10:22.943Z,99703.45
2018-11-28T18:13:04.268Z,99696.80
2018-11-28T18:15:41.772Z,99700.27
2018-11-28T18:18:18.973Z,99701.28
2018-11-28T18:20:53.807Z,99708.59
2018-11-28T18:23:23.037Z,99700.67
2018-11-28T18:26:03.649Z,99690.13
2018-11-28T18:28:55.088Z,99685.50
2018-11-28T18:31:36.228Z,99686.63
2018-11-28T18:34:20.074Z,99688.17
2018-11-28T18:36:58.820Z,99690.80
2018-11-28T18:39:33.395Z,99692.17
2018-11-28T18:42:21.122Z,99690.02
2018-11-28T18:44:53.590Z,99684.45
2018-11-28T18:47:36.945Z,99693.72
2018-11-28T18:50:14.188Z,99689.97
2018-11-28T18:52:45.429Z,99693.05
2018-11-28T18:58:17.113Z,99679.03
2018-11-28T19:00:55.994Z,99684.73
2018-11-28T19:03:30.486Z,99680.56
2018-11-28T19:06:15.100Z,99687.91
2018-11-28T19:08:45.476Z,99688.42
2018-11-28T19:11:14.365Z,99687.57
2018-11-28T19:13:44.401Z,99689.67
2018-11-28T19:16:21.631Z,99688.53
2018-11-28T19:18:52.140Z,99688.67
2018-11-28T19:21:23.907Z,99689.30
2018-11-28T19:24:06.968Z,99693.98
2018-11-28T19:26:45.803Z,99688.15
2018-11-28T19:29:28.203Z,99685.47
2018-11-28T19:34:57.920Z,99676.33
2018-11-28T19:37:55.902Z,99674.43
2018-11-28T19:40:31.913Z,99678.72
2018-11-28T19:43:06.301Z,99681.43
2018-11-28T19:45:38.370Z,99679.72
2018-11-28T19:51:00.122Z,99687.08
2018-11-28T19:53:38.568Z,99688.63
2018-11-28T19:56:08.350Z,99694.27
2018-11-28T19:58:39.190Z,99692.05
2018-11-28T20:01:18.007Z,99688.63
2018-11-28T20:03:55.633Z,99701.09
2018-11-28T20:06:34.735Z,99700.23
2018-11-28T20:09:18.779Z,99702.70
2018-11-28T20:11:48.631Z,99719.28
2018-11-28T20:14:25.270Z,99719.22
2018-11-28T20:17:20.113Z,99721.31
2018-11-28T20:19:51.118Z,99715.91
2018-11-28T20:22:49.570Z,99716.31
2018-11-28T20:25:33.261Z,99698.20
2018-11-28T20:28:14.111Z,99698.20
2018-11-28T20:30:57.496Z,99695.50
2018-11-28T20:33:30.550Z,99694.59
2018-11-28T20:36:07.811Z,99686.44
2018-11-28T20:38:37.556Z,99685.87
2018-11-28T20:41:11.402Z,99689.51
2018-11-28T20:43:46.018Z,99688.41
2018-11-28T20:46:19.400Z,99679.94
2018-11-28T20:49:15.024Z,99688.30
2018-11-28T20:52:05.239Z,99689.95
2018-11-28T20:54:53.019Z,99691.38
2018-11-28T20:57:29.794Z,99685.93
2018-11-28T21:00:01.247Z,99676.31
2018-11-28T21:02:36.353Z,99683.16
2018-11-28T21:05:08.486Z,99683.81
2018-11-28T21:07:44.334Z,99674.80
2018-11-28T21:10:33.407Z,99674.30
2018-11-28T21:13:05.268Z,99677.42
2018-11-28T21:15:36.763Z,99681.04
2018-11-28T21:18:23.702Z,99679.03
2018-11-28T21:20:54.814Z,99694.30
2018-11-28T21:23:29.953Z,99700.95
2018-11-28T21:26:13.233Z,99704.06
2018-11-28T21:28:43.851Z,99705.31
2018-11-28T21:34:00.146Z,99719.73
2018-11-28T21:36:30.614Z,99721.70
2018-11-28T21:39:01.379Z,99711.81
2018-11-28T21:41:30.706Z,99714.48
2018-11-28T21:44:02.907Z,99703.23
2018-11-28T21:46:33.324Z,99700.16
2018-11-28T21:49:04.725Z,99693.61
2018-11-28T21:51:35.509Z,99698.75
2018-11-28T21:54:05.180Z,99689.56
2018-11-28T21:56:36.743Z,99676.44
2018-11-28T21:59:12.616Z,99677.64
2018-11-28T22:01:54.090Z,99668.44
2018-11-28T22:04:26.152Z,99667.63
2018-11-28T22:06:58.905Z,99665.36
2018-11-28T22:09:31.979Z,99666.05
2018-11-28T22:12:09.225Z,99672.12
2018-11-28T22:14:37.993Z,99683.39
2018-11-28T22:17:06.853Z,99689.80
2018-11-28T22:19:35.714Z,99687.00
2018-11-28T22:22:05.173Z,99691.02
2018-11-28T22:24:39.838Z,99701.75
2018-11-28T22:27:09.190Z,99702.11
2018-11-28T22:29:40.850Z,99699.94
2018-11-28T22:32:10.743Z,99696.56
2018-11-28T22:34:42.586Z,99700.58
2018-11-28T22:37:16.295Z,99703.25
2018-11-28T22:39:48.604Z,99704.69
2018-11-28T22:42:19.507Z,99710.87
2018-11-28T22:44:49.229Z,99693.98
2018-11-28T22:47:20.279Z,99689.34
2018-11-28T22:49:51.106Z,99685.61
2018-11-28T22:52:20.564Z,99674.55
2018-11-28T22:54:50.238Z,99671.61
2018-11-28T22:57:19.267Z,99676.44
2018-11-28T22:59:48.615Z,99684.88
2018-11-28T23:03:20.201Z,99688.44
2018-11-28T23:05:51.789Z,99684.39
2018-11-28T23:08:24.033Z,99686.23
2018-11-28T23:10:54.292Z,99689.26
2018-11-28T23:13:33.030Z,99685.96
2018-11-28T23:16:05.582Z,99682.99
2018-11-28T23:18:36.538Z,99688.31
2018-11-28T23:21:08.324Z,99676.22
2018-11-28T23:23:41.016Z,99660.66
2018-11-28T23:26:13.350Z,99652.81
2018-11-28T23:28:41.942Z,99656.14
2018-11-28T23:31:10.582Z,99648.34
2018-11-28T23:33:42.533Z,99649.23
2018-11-28T23:36:11.721Z,99653.35
2018-11-28T23:38:40.987Z,99659.44
2018-11-28T23:41:09.950Z,99660.62
2018-11-28T23:43:50.786Z,99669.23
2018-11-28T23:46:26.024Z,99660.58
2018-11-28T23:48:56.986Z,99657.27
2018-11-28T23:51:25.831Z,99657.00
2018-11-28T23:53:54.928Z,99651.41
2018-11-28T23:56:29.104Z,99641.17
2018-11-28T23:59:01.967Z,99634.03
